Time;durP1;ratioP1;P1;durP2;ratioP2;P2;SDS_P1;SDS_P2;PMS_P1;PMS_P2;Temp;Humidity;BMP_temperature;BMP_pressure;BME280_temperature;BME280_humidity;BME280_pressure;Samples;Min_cycle;Max_cycle;Signal;HPM_P1;HPM_P2
2024/01/30 00:01:47;;;;;;;6.43;4.10;;;4.30;99.90;;;-141.84;67.05;18651.50;4977474;28;20775;-50
2024/01/30 00:04:16;;;;;;;4.70;4.07;;;4.30;99.90;;;-141.84;67.57;18649.47;4977210;28;20726;-53
2024/01/30 00:06:45;;;;;;;5.73;4.60;;;4.20;99.90;;;-141.84;68.26;18684.00;4976405;28;20227;-53
2024/01/30 00:09:13;;;;;;;6.03;4.33;;;4.20;99.90;;;-141.84;68.36;18651.50;4975959;28;20233;-53
2024/01/30 00:11:43;;;;;;;6.07;4.60;;;4.20;99.90;;;-141.84;68.55;18681.97;4977953;28;20199;-49
2024/01/30 00:14:12;;;;;;;5.40;4.33;;;4.10;99.90;;;-141.84;68.85;18671.81;4975895;28;20268;-52
2024/01/30 00:16:41;;;;;;;5.93;4.73;;;4.10;99.90;;;-141.84;69.32;18655.56;4975093;28;20704;-54
2024/01/30 00:19:09;;;;;;;9.30;4.77;;;4.10;99.90;;;-141.84;68.90;18677.91;4975648;28;20285;-55
2024/01/30 00:21:37;;;;;;;6.37;4.93;;;4.10;99.90;;;-141.84;68.04;18643.38;4978755;28;20238;-53
2024/01/30 00:24:06;;;;;;;5.53;4.57;;;4.20;99.90;;;-141.84;67.33;18629.16;4980332;28;20290;-52
2024/01/30 00:26:34;;;;;;;6.83;4.47;;;4.20;99.90;;;-141.84;67.79;18679.94;4987278;28;20254;-54
2024/01/30 00:29:04;;;;;;;5.80;4.27;;;4.20;99.90;;;-141.84;68.32;18655.56;4978998;28;20817;-53
2024/01/30 00:31:33;;;;;;;6.37;4.50;;;4.20;99.90;;;-141.84;68.34;18647.44;4976937;28;20223;-53
2024/01/30 00:34:01;;;;;;;5.83;4.53;;;4.20;99.90;;;-141.84;66.56;18637.28;4982187;28;20226;-54
2024/01/30 00:36:30;;;;;;;7.23;4.70;;;4.30;99.90;;;-141.84;65.29;18590.56;4983300;28;20233;-51
2024/01/30 00:38:58;;;;;;;7.27;4.10;;;4.40;99.90;;;-141.84;64.04;18649.47;4984780;28;20294;-50
2024/01/30 00:41:26;;;;;;;5.43;4.43;;;4.60;99.90;;;-141.84;63.98;18619.00;4981291;28;20294;-49
2024/01/30 00:43:55;;;;;;;5.93;4.80;;;4.60;99.90;;;-141.84;64.18;18590.56;4982723;28;20230;-49
2024/01/30 00:46:24;;;;;;;6.00;4.43;;;4.60;99.90;;;-141.84;64.80;18614.94;4982972;28;20228;-53
2024/01/30 00:48:52;;;;;;;8.20;4.40;;;4.60;99.90;;;-141.84;63.26;18594.63;4981257;28;20231;-53
2024/01/30 00:51:21;;;;;;;7.07;4.60;;;4.70;99.90;;;-141.84;61.97;18614.94;4980454;28;20232;-54
2024/01/30 00:53:49;;;;;;;5.57;4.00;;;4.80;99.90;;;-141.84;61.64;18641.34;4980868;28;20226;-52
2024/01/30 00:56:18;;;;;;;5.17;4.03;;;4.90;99.90;;;-141.84;61.76;18629.16;4983212;28;20629;-50
2024/01/30 00:58:46;;;;;;;6.03;4.00;;;4.90;99.90;;;-141.84;63.35;18610.88;4982489;28;20232;-52
2024/01/30 01:01:14;;;;;;;5.77;4.03;;;4.80;99.90;;;-141.84;62.20;18598.69;4982625;28;20304;-53
2024/01/30 01:03:43;;;;;;;5.43;3.97;;;4.90;99.90;;;-141.84;60.04;18645.41;4980009;28;20226;-54
2024/01/30 01:06:12;;;;;;;5.83;4.27;;;5.00;99.90;;;-141.84;58.79;18649.47;4984936;28;20269;-54
2024/01/30 01:08:40;;;;;;;4.93;3.90;;;5.10;99.90;;;-141.84;59.54;18647.44;4982786;28;20664;-50
2024/01/30 01:11:08;;;;;;;5.67;3.83;;;5.20;99.90;;;-141.84;59.96;18663.69;4979201;28;20240;-50
2024/01/30 01:13:36;;;;;;;4.33;3.90;;;5.10;99.90;;;-141.84;60.04;18663.69;4979824;28;20249;-54
2024/01/30 01:16:05;;;;;;;5.03;4.23;;;5.10;99.90;;;-141.84;59.75;18619.00;4982943;28;20247;-50
2024/01/30 01:18:33;;;;;;;4.83;3.80;;;5.10;99.90;;;-141.84;59.42;18653.53;4974930;28;20326;-52
2024/01/30 01:21:03;;;;;;;5.00;3.90;;;5.10;99.90;;;-141.84;58.99;18651.50;4982348;28;20428;-50
2024/01/30 01:23:31;;;;;;;4.50;4.00;;;5.10;99.90;;;-141.84;57.35;18627.13;4981719;28;20634;-52
2024/01/30 01:26:00;;;;;;;5.83;4.50;;;5.30;99.90;;;-141.84;56.13;18673.84;4979174;28;20810;-53
2024/01/30 01:28:29;;;;;;;4.90;4.00;;;5.40;99.90;;;-141.84;57.51;18649.47;4979581;28;20223;-51
2024/01/30 01:31:04;;;;;;;6.60;4.17;;;5.40;99.90;;;-141.84;58.36;18659.63;4980283;28;20227;-52
2024/01/30 01:33:33;;;;;;;5.97;3.90;;;5.20;99.90;;;-141.84;58.04;18633.22;4978213;28;20218;-52
2024/01/30 01:36:03;;;;;;;6.60;4.13;;;5.30;99.90;;;-141.84;58.12;18627.13;4979552;28;20199;-53
2024/01/30 01:38:32;;;;;;;4.23;3.83;;;5.20;99.90;;;-141.84;58.11;18659.63;4982606;28;20217;-51
2024/01/30 01:41:00;;;;;;;6.93;3.83;;;5.20;99.90;;;-141.84;57.83;18667.75;4981507;28;20231;-55
2024/01/30 01:43:28;;;;;;;6.67;4.00;;;5.20;99.90;;;-141.84;58.28;18631.19;4979736;28;20321;-50
2024/01/30 01:45:56;;;;;;;7.13;4.30;;;5.20;99.90;;;-141.84;57.24;18681.97;4981724;28;20781;-48
2024/01/30 01:48:25;;;;;;;4.60;4.07;;;5.20;99.90;;;-141.84;57.39;18657.59;4981352;28;20229;-53
2024/01/30 01:50:54;;;;;;;5.47;4.07;;;5.20;99.90;;;-141.84;58.44;18623.06;4980440;28;20559;-53
2024/01/30 01:53:24;;;;;;;6.23;3.63;;;5.10;99.90;;;-141.84;58.00;18651.50;4979820;28;20246;-49
2024/01/30 01:55:53;;;;;;;5.60;4.10;;;5.10;99.90;;;-141.84;58.30;18643.38;4978865;28;20314;-53
2024/01/30 01:58:24;;;;;;;5.43;3.77;;;5.00;99.90;;;-141.84;57.96;18679.94;4980666;28;20388;-52
2024/01/30 02:00:52;;;;;;;4.60;4.10;;;5.10;99.90;;;-141.84;58.06;18639.31;4976255;28;20735;-51
2024/01/30 02:03:21;;;;;;;6.40;4.13;;;5.10;99.90;;;-141.84;56.20;18655.56;4986703;28;20238;-52
2024/01/30 02:05:52;;;;;;;6.97;4.30;;;5.20;99.90;;;-141.84;56.66;18667.75;4971006;28;20210;-53
2024/01/30 02:08:21;;;;;;;6.50;4.10;;;5.10;99.90;;;-141.84;57.70;18629.16;4979553;28;20716;-51
2024/01/30 02:10:51;;;;;;;5.53;4.43;;;5.10;99.90;;;-141.84;58.74;18663.69;4971798;28;20247;-50
2024/01/30 02:13:19;;;;;;;5.40;4.13;;;5.10;99.90;;;-141.84;56.51;18641.34;4978770;28;20792;-50
2024/01/30 02:15:51;;;;;;;6.50;4.47;;;5.10;99.90;;;-141.84;56.80;18637.28;4980867;28;20232;-52
2024/01/30 02:18:21;;;;;;;6.80;4.43;;;5.10;99.90;;;-141.84;55.87;18677.91;4979377;28;20229;-50
2024/01/30 02:20:49;;;;;;;4.87;4.00;;;5.20;99.90;;;-141.84;55.59;18653.53;4978764;28;20210;-50
2024/01/30 02:23:21;;;;;;;6.07;4.27;;;5.30;99.90;;;-141.84;56.79;18655.56;4986525;28;20288;-52
2024/01/30 02:25:49;;;;;;;4.53;4.00;;;5.20;99.90;;;-141.84;56.56;18667.75;4972610;28;20801;-52
2024/01/30 02:28:17;;;;;;;4.97;4.00;;;5.20;99.90;;;-141.84;57.97;18610.88;4981511;28;20776;-49
2024/01/30 02:30:46;;;;;;;5.23;4.10;;;5.20;99.90;;;-141.84;58.24;18635.25;4980695;28;20237;-52
2024/01/30 02:33:15;;;;;;;6.33;4.47;;;5.10;99.90;;;-141.84;58.20;18659.63;4978290;28;20257;-53
2024/01/30 02:35:43;;;;;;;5.37;3.83;;;5.10;99.90;;;-141.84;58.83;18635.25;4978966;28;20210;-53
2024/01/30 02:38:11;;;;;;;5.30;4.03;;;5.00;99.90;;;-141.84;57.89;18651.50;4980260;28;20235;-55
2024/01/30 02:40:41;;;;;;;5.97;4.33;;;5.10;99.90;;;-141.84;57.64;18643.38;4983019;28;20289;-50
2024/01/30 02:43:09;;;;;;;5.10;3.70;;;5.10;99.90;;;-141.84;58.40;18643.38;4976688;28;20705;-49
2024/01/30 02:45:38;;;;;;;4.77;4.10;;;5.10;99.90;;;-141.84;58.06;18608.84;4978866;28;20579;-51
2024/01/30 02:48:07;;;;;;;5.23;4.03;;;5.10;99.90;;;-141.84;58.42;18651.50;4978080;28;20751;-52
2024/01/30 02:50:35;;;;;;;4.87;4.07;;;5.00;99.90;;;-141.84;58.33;18647.44;4978881;28;20199;-52
2024/01/30 02:53:04;;;;;;;5.13;3.93;;;5.00;99.90;;;-141.84;57.45;18647.44;4979926;28;20313;-54
2024/01/30 02:55:32;;;;;;;5.17;3.97;;;5.10;99.90;;;-141.84;57.59;18637.28;4980279;28;20229;-53
2024/01/30 02:58:02;;;;;;;4.60;3.73;;;5.00;99.90;;;-141.84;59.12;18659.63;4974068;28;20310;-50
2024/01/30 03:00:30;;;;;;;5.60;4.07;;;5.00;99.90;;;-141.84;58.11;18623.06;4980485;28;20262;-52
2024/01/30 03:02:59;;;;;;;5.77;3.90;;;5.00;99.90;;;-141.84;57.48;18663.69;4979702;28;20736;-51
2024/01/30 03:05:27;;;;;;;5.53;3.87;;;4.90;99.90;;;-141.84;58.46;18637.28;4980843;28;20198;-55
2024/01/30 03:07:55;;;;;;;5.10;3.53;;;4.80;99.90;;;-141.84;59.89;18631.19;4975583;28;20720;-52
2024/01/30 03:10:24;;;;;;;6.53;4.10;;;4.80;99.90;;;-141.84;59.41;18625.09;4980309;28;20229;-55
2024/01/30 03:12:52;;;;;;;4.53;3.50;;;4.70;99.90;;;-141.84;59.57;18600.72;4980275;28;20227;-51
2024/01/30 03:15:22;;;;;;;5.40;4.47;;;4.70;99.90;;;-141.84;58.80;18663.69;4980267;28;20275;-52
2024/01/30 03:17:51;;;;;;;5.67;4.30;;;4.70;99.90;;;-141.84;59.55;18677.91;4980562;28;20198;-54
2024/01/30 03:20:19;;;;;;;4.83;4.10;;;4.60;99.90;;;-141.84;59.95;18637.28;4980948;28;20218;-52
2024/01/30 03:22:47;;;;;;;4.93;4.20;;;4.60;99.90;;;-141.84;59.86;18623.06;4980502;28;20769;-52
2024/01/30 03:25:15;;;;;;;4.63;3.63;;;4.50;99.90;;;-141.84;59.60;18655.56;4980190;28;20313;-52
2024/01/30 03:27:44;;;;;;;9.37;4.00;;;4.50;99.90;;;-141.84;58.85;18669.78;4978201;28;20260;-50
2024/01/30 03:30:12;;;;;;;6.33;4.30;;;4.60;99.90;;;-141.84;58.04;18619.00;4975748;28;20259;-53
2024/01/30 03:32:42;;;;;;;4.50;3.70;;;4.40;99.90;;;-141.84;59.09;18645.41;4980951;28;20277;-49
2024/01/30 03:35:11;;;;;;;6.50;4.33;;;4.70;99.90;;;-141.84;57.87;18614.94;4978050;28;20237;-50
2024/01/30 03:37:39;;;;;;;4.70;4.10;;;4.70;99.90;;;-141.84;59.27;18598.69;4983050;28;20237;-52
2024/01/30 03:40:09;;;;;;;4.93;4.33;;;4.60;99.90;;;-141.84;59.99;18643.38;4979940;28;20225;-50
2024/01/30 03:42:37;;;;;;;4.40;3.67;;;4.60;99.90;;;-141.84;60.79;18633.22;4965136;28;20231;-50
2024/01/30 03:45:07;;;;;;;7.27;4.20;;;4.50;99.90;;;-141.84;61.23;18596.66;4981760;28;20254;-53
2024/01/30 03:47:35;;;;;;;7.03;4.67;;;4.40;99.90;;;-141.84;59.69;18608.84;4981430;28;20198;-52
2024/01/30 03:50:06;;;;;;;6.07;4.43;;;4.40;99.90;;;-141.84;59.57;18627.13;4978095;28;20261;-53
2024/01/30 03:52:34;;;;;;;4.97;4.17;;;4.40;99.90;;;-141.84;59.36;18619.00;4977711;28;20772;-54
2024/01/30 03:55:02;;;;;;;4.90;3.93;;;4.40;99.90;;;-141.84;59.07;18610.88;4979119;28;20282;-53
2024/01/30 03:57:31;;;;;;;5.27;4.07;;;4.50;99.90;;;-141.84;58.00;18643.38;4983996;28;20284;-51
2024/01/30 03:59:59;;;;;;;5.50;4.33;;;4.60;99.90;;;-141.84;58.56;18641.34;4984372;28;20241;-54
2024/01/30 04:02:30;;;;;;;5.40;4.23;;;4.60;99.90;;;-141.84;59.80;18623.06;4981979;28;20217;-54
2024/01/30 04:04:58;;;;;;;5.50;4.43;;;4.50;99.90;;;-141.84;58.82;18619.00;4979310;28;20298;-53
2024/01/30 04:07:29;;;;;;;6.03;4.63;;;4.60;99.90;;;-141.84;58.83;18635.25;4979942;28;20434;-53
2024/01/30 04:09:57;;;;;;;7.60;5.17;;;4.60;99.90;;;-141.84;58.31;18608.84;4970644;28;20238;-54
2024/01/30 04:12:25;;;;;;;7.67;4.60;;;4.70;99.90;;;-141.84;57.33;18627.13;4983849;28;20225;-53
2024/01/30 04:14:54;;;;;;;5.43;4.43;;;4.70;99.90;;;-141.84;57.84;18616.97;4974614;28;20488;-54
2024/01/30 04:17:22;;;;;;;6.47;4.70;;;4.70;99.90;;;-141.84;56.77;18614.94;4979280;28;20737;-53
2024/01/30 04:19:50;;;;;;;7.37;4.70;;;4.80;99.90;;;-141.84;56.86;18625.09;4983741;28;20283;-55
2024/01/30 04:22:18;;;;;;;7.27;4.53;;;4.80;99.90;;;-141.84;57.37;18621.03;4975396;28;20307;-53
2024/01/30 04:24:48;;;;;;;5.60;4.53;;;4.50;99.90;;;-141.84;58.11;18661.66;4984695;28;20711;-53
2024/01/30 04:27:16;;;;;;;7.97;4.73;;;4.60;99.90;;;-141.84;59.02;18633.22;4986430;28;20911;-54
2024/01/30 04:29:44;;;;;;;8.40;4.80;;;4.60;99.90;;;-141.84;57.55;18639.31;4979019;28;20636;-52
2024/01/30 04:32:13;;;;;;;4.73;4.00;;;4.60;99.90;;;-141.84;56.98;18635.25;4986234;28;20225;-54
2024/01/30 04:34:41;;;;;;;5.77;4.80;;;4.70;99.90;;;-141.84;56.89;18643.38;4982830;28;20230;-52
2024/01/30 04:37:10;;;;;;;5.80;4.33;;;4.70;99.90;;;-141.84;57.44;18635.25;4981829;28;20301;-54
2024/01/30 04:39:38;;;;;;;6.00;4.40;;;4.60;99.90;;;-141.84;57.74;18651.50;4984716;28;20759;-54
2024/01/30 04:42:08;;;;;;;6.13;4.40;;;4.70;99.90;;;-141.84;57.25;18623.06;4977545;28;20233;-53
2024/01/30 04:44:36;;;;;;;6.63;4.97;;;4.70;99.90;;;-141.84;56.15;18645.41;4984180;28;20201;-53
2024/01/30 04:47:08;;;;;;;7.20;4.67;;;4.80;99.90;;;-141.84;57.02;18631.19;4983464;28;20306;-56
2024/01/30 04:49:36;;;;;;;8.27;4.53;;;4.80;99.90;;;-141.84;56.63;18649.47;4983005;28;20272;-55
2024/01/30 04:52:05;;;;;;;6.17;5.07;;;4.80;99.90;;;-141.84;55.99;18659.63;4980477;28;20213;-53
2024/01/30 04:54:34;;;;;;;5.27;4.50;;;4.80;99.90;;;-141.84;57.00;18635.25;4980504;28;20230;-54
2024/01/30 04:57:03;;;;;;;6.17;4.43;;;4.80;99.90;;;-141.84;57.41;18627.13;4981570;28;20288;-53
2024/01/30 04:59:33;;;;;;;8.13;4.80;;;4.80;99.90;;;-141.84;56.65;18635.25;4982129;28;20276;-55
2024/01/30 05:02:01;;;;;;;6.90;4.90;;;4.80;99.90;;;-141.84;56.09;18659.63;4987825;28;20222;-51
2024/01/30 05:04:29;;;;;;;5.90;4.60;;;4.80;99.90;;;-141.84;55.35;18686.03;4980725;28;20242;-50
2024/01/30 05:06:58;;;;;;;6.33;4.90;;;4.80;99.90;;;-141.84;55.07;18659.63;4979521;28;20226;-59
2024/01/30 05:09:26;;;;;;;8.93;4.77;;;4.90;99.90;;;-141.84;55.38;18649.47;4979851;28;20221;-53
2024/01/30 05:11:54;;;;;;;5.20;4.13;;;4.90;99.90;;;-141.84;54.68;18665.72;4982244;28;20226;-54
2024/01/30 05:14:22;;;;;;;6.27;4.77;;;5.00;99.90;;;-141.84;55.30;18629.16;4983038;28;20198;-54
2024/01/30 05:16:52;;;;;;;5.73;4.73;;;4.90;99.90;;;-141.84;55.67;18639.31;4974768;28;20344;-55
2024/01/30 05:19:23;;;;;;;6.77;4.80;;;4.90;99.90;;;-141.84;54.57;18655.56;4972258;28;20320;-52
2024/01/30 05:21:51;;;;;;;14.93;7.33;;;4.90;99.90;;;-141.84;55.44;18673.84;4980004;28;20761;-54
2024/01/30 05:24:19;;;;;;;31.67;18.37;;;4.80;99.90;;;-141.84;55.18;18673.84;4980849;28;20229;-53
2024/01/30 05:26:50;;;;;;;11.43;8.23;;;4.80;99.90;;;-141.84;55.57;18621.03;4982428;28;20249;-50
2024/01/30 05:29:19;;;;;;;8.77;5.20;;;4.70;99.90;;;-141.84;56.67;18645.41;4979011;28;20250;-52
2024/01/30 05:31:47;;;;;;;9.40;6.00;;;4.60;99.90;;;-141.84;57.33;18614.94;4981274;28;20231;-53
2024/01/30 05:34:17;;;;;;;6.73;4.63;;;4.60;99.90;;;-141.84;57.18;18635.25;4982163;28;20683;-54
2024/01/30 05:36:45;;;;;;;9.03;5.27;;;4.50;99.90;;;-141.84;56.90;18631.19;4982855;28;20231;-54
2024/01/30 05:39:14;;;;;;;7.07;4.87;;;4.50;99.90;;;-141.84;56.08;18647.44;4981573;28;20267;-52
2024/01/30 05:41:42;;;;;;;6.53;4.60;;;4.50;99.90;;;-141.84;56.01;18643.38;4979117;28;20546;-52
2024/01/30 05:44:10;;;;;;;6.47;4.93;;;4.50;99.90;;;-141.84;55.86;18635.25;4980113;28;20247;-56
2024/01/30 05:46:39;;;;;;;5.93;5.03;;;4.60;99.90;;;-141.84;56.13;18625.09;4979842;28;20266;-52
2024/01/30 05:49:07;;;;;;;6.63;4.90;;;4.50;99.90;;;-141.84;56.58;18629.16;4979368;28;20228;-55
2024/01/30 05:51:36;;;;;;;6.87;4.70;;;4.50;99.90;;;-141.84;56.90;18598.69;4980388;28;20673;-55
2024/01/30 05:54:05;;;;;;;6.57;5.07;;;4.40;99.90;;;-141.84;57.10;18623.06;4984150;28;20577;-53
2024/01/30 05:56:33;;;;;;;8.03;4.83;;;4.40;99.90;;;-141.84;56.18;18643.38;4978296;28;20214;-56
2024/01/30 05:59:02;;;;;;;6.63;4.80;;;4.40;99.90;;;-141.84;55.50;18635.25;4979896;28;20233;-53
2024/01/30 06:01:30;;;;;;;5.97;4.57;;;4.50;99.90;;;-141.84;55.58;18647.44;4982102;28;20740;-54
2024/01/30 06:03:58;;;;;;;9.27;5.00;;;4.50;99.90;;;-141.84;56.44;18639.31;4979493;28;20733;-55
2024/01/30 06:06:26;;;;;;;8.83;5.47;;;4.40;99.90;;;-141.84;56.89;18631.19;4973870;28;20237;-55
2024/01/30 06:08:56;;;;;;;5.63;4.80;;;4.40;99.90;;;-141.84;55.46;18643.38;4981117;28;20640;-53
2024/01/30 06:11:24;;;;;;;8.03;5.60;;;4.50;99.90;;;-141.84;54.71;18667.75;4979848;28;20631;-54
2024/01/30 06:13:52;;;;;;;9.77;5.10;;;4.60;99.90;;;-141.84;53.42;18673.84;4980901;28;20807;-56
2024/01/30 06:16:21;;;;;;;6.67;4.90;;;4.80;99.90;;;-141.84;53.91;18641.34;4974763;28;20791;-55
2024/01/30 06:18:49;;;;;;;7.30;4.60;;;4.70;99.90;;;-141.84;54.44;18625.09;4984332;28;20230;-54
2024/01/30 06:21:19;;;;;;;6.20;5.07;;;4.70;99.90;;;-141.84;53.32;18681.97;4979945;28;20309;-53
2024/01/30 06:23:47;;;;;;;6.10;4.67;;;4.80;99.90;;;-141.84;54.34;18635.25;4976495;28;20297;-53
2024/01/30 06:26:16;;;;;;;6.23;4.93;;;4.70;99.90;;;-141.84;55.19;18629.16;4982445;28;20233;-55
2024/01/30 06:28:45;;;;;;;7.23;5.30;;;4.60;99.90;;;-141.84;55.42;18667.75;4971250;28;20234;-54
2024/01/30 06:31:13;;;;;;;7.50;5.30;;;4.60;99.90;;;-141.84;54.00;18655.56;4971317;28;20249;-56
2024/01/30 06:33:42;;;;;;;6.50;5.40;;;4.60;99.90;;;-141.84;53.46;18629.16;4980987;28;20729;-55
2024/01/30 06:36:10;;;;;;;6.43;5.03;;;4.70;99.90;;;-141.84;53.81;18669.78;4982954;28;20463;-55
2024/01/30 06:38:38;;;;;;;7.03;5.33;;;4.60;99.90;;;-141.84;53.76;18657.59;4979270;28;20196;-53
2024/01/30 06:41:07;;;;;;;7.63;5.10;;;4.60;99.90;;;-141.84;53.70;18667.75;4979387;28;20235;-53
2024/01/30 06:43:37;;;;;;;8.03;5.40;;;4.70;99.90;;;-141.84;53.57;18643.38;4981388;28;20738;-54
2024/01/30 06:46:05;;;;;;;6.70;4.97;;;4.60;99.90;;;-141.84;53.83;18651.50;4982172;28;20230;-52
2024/01/30 06:48:33;;;;;;;9.20;5.50;;;4.70;99.90;;;-141.84;53.76;18643.38;4979521;28;20277;-49
2024/01/30 06:51:02;;;;;;;6.73;5.90;;;4.60;99.90;;;-141.84;53.96;18647.44;4981675;28;20199;-54
2024/01/30 06:53:30;;;;;;;7.83;5.43;;;4.50;99.90;;;-141.84;54.91;18635.25;4974236;28;20213;-54
2024/01/30 06:55:58;;;;;;;7.43;5.53;;;4.40;99.90;;;-141.84;54.70;18616.97;4980304;28;20259;-54
2024/01/30 06:58:26;;;;;;;7.37;5.37;;;4.40;99.90;;;-141.84;54.18;18657.59;4981209;28;20216;-54
2024/01/30 07:00:57;;;;;;;6.43;4.90;;;4.50;99.90;;;-141.84;54.53;18647.44;4981161;28;20734;-53
2024/01/30 07:03:26;;;;;;;6.23;5.10;;;4.50;99.90;;;-141.84;55.98;18633.22;4980257;28;20243;-53
2024/01/30 07:05:54;;;;;;;6.77;4.93;;;4.40;99.90;;;-141.84;55.22;18651.50;4981041;28;20224;-53
2024/01/30 07:08:22;;;;;;;6.70;5.07;;;4.40;99.90;;;-141.84;54.31;18653.53;4973341;28;20206;-53
2024/01/30 07:10:50;;;;;;;6.70;5.17;;;4.40;99.90;;;-141.84;53.37;18669.78;4974545;28;20317;-55
2024/01/30 07:13:18;;;;;;;7.03;4.73;;;4.60;99.90;;;-141.84;53.44;18631.19;4973345;28;20317;-55
2024/01/30 07:15:47;;;;;;;5.47;4.60;;;4.60;99.90;;;-141.84;52.97;18671.81;4978023;28;20238;-54
2024/01/30 07:18:16;;;;;;;6.93;4.87;;;4.70;99.90;;;-141.84;52.72;18684.00;4980520;28;20226;-53
2024/01/30 07:20:47;;;;;;;8.23;5.37;;;4.70;99.90;;;-141.84;52.27;18698.22;4976849;28;20514;-51
2024/01/30 07:23:17;;;;;;;7.40;5.13;;;4.80;99.90;;;-141.84;52.92;18663.69;4972275;28;20244;-53
2024/01/30 07:25:48;;;;;;;7.33;5.27;;;4.80;99.90;;;-141.84;52.94;18671.81;4980291;28;20489;-53
2024/01/30 07:28:18;;;;;;;6.70;5.30;;;4.80;99.90;;;-141.84;52.37;18655.56;4980308;28;20253;-54
2024/01/30 07:30:48;;;;;;;6.80;5.00;;;4.90;99.90;;;-141.84;51.92;18659.63;4980374;28;20229;-53
2024/01/30 07:33:17;;;;;;;9.07;5.60;;;5.00;99.90;;;-141.84;51.98;18692.13;4977756;28;20226;-55
2024/01/30 07:35:47;;;;;;;7.13;5.90;;;5.00;99.90;;;-141.84;51.23;18698.22;4978292;28;20301;-53
2024/01/30 07:38:15;;;;;;;8.43;6.13;;;5.10;99.90;;;-141.84;51.37;18679.94;4980807;28;20662;-50
2024/01/30 07:40:43;;;;;;;7.37;5.63;;;5.10;99.90;;;-141.84;51.11;18659.63;4973559;28;20695;-50
2024/01/30 07:43:11;;;;;;;9.30;5.83;;;5.10;99.90;;;-141.84;51.51;18700.25;4979443;28;20713;-52
2024/01/30 07:45:40;;;;;;;6.80;4.93;;;5.10;99.90;;;-141.84;50.62;18722.63;4977325;28;20234;-55
2024/01/30 07:48:09;;;;;;;6.37;5.13;;;5.20;99.90;;;-141.84;50.58;18700.25;4977927;28;20234;-51
2024/01/30 07:50:39;;;;;;;6.30;4.90;;;5.20;99.90;;;-141.84;50.59;18692.13;4982067;28;20230;-54
2024/01/30 07:53:07;;;;;;;7.40;5.23;;;5.30;99.90;;;-141.84;50.33;18696.19;4977117;28;20700;-53
2024/01/30 07:55:35;;;;;;;8.07;5.20;;;5.30;99.90;;;-141.84;49.93;18736.84;4980082;28;20225;-51
2024/01/30 07:58:04;;;;;;;7.93;4.77;;;5.50;99.90;;;-141.84;50.25;18724.66;4977613;28;20227;-53
2024/01/30 08:00:32;;;;;;;10.00;5.00;;;5.40;99.90;;;-141.84;49.85;18700.25;4974045;28;20272;-54
2024/01/30 08:03:01;;;;;;;7.67;5.43;;;5.50;99.90;;;-141.84;49.77;18722.63;4967508;28;20215;-56
2024/01/30 08:05:29;;;;;;;6.00;4.93;;;5.50;99.90;;;-141.84;48.98;18744.97;4958116;28;20317;-53
2024/01/30 08:07:59;;;;;;;6.60;4.97;;;5.60;99.90;;;-141.84;48.59;18749.03;4959760;28;20247;-54
2024/01/30 08:10:27;;;;;;;6.97;5.50;;;5.70;99.90;;;-141.84;49.05;18747.00;4962269;28;20231;-52
2024/01/30 08:12:55;;;;;;;7.87;4.80;;;5.70;99.90;;;-141.84;48.31;18753.09;4953756;28;20306;-55
2024/01/30 08:15:23;;;;;;;8.17;5.00;;;5.90;99.90;;;-141.84;48.67;18761.22;4951734;28;20236;-54
2024/01/30 08:17:55;;;;;;;7.53;5.80;;;5.90;99.90;;;-141.84;49.02;18728.72;4951354;28;20243;-55
2024/01/30 08:20:24;;;;;;;7.53;5.50;;;6.00;99.90;;;-141.84;48.26;18781.53;4975560;28;20203;-55
2024/01/30 08:22:52;;;;;;;8.97;4.50;;;6.10;99.90;;;-141.84;47.58;18777.47;4980316;28;20268;-54
2024/01/30 08:25:22;;;;;;;8.53;5.57;;;6.20;99.90;;;-141.84;47.36;18787.63;4954071;28;20827;-53
2024/01/30 08:27:51;;;;;;;6.37;5.10;;;6.30;99.90;;;-141.84;47.34;18789.66;4978198;28;20223;-54
2024/01/30 08:30:20;;;;;;;9.00;5.40;;;6.30;99.90;;;-141.84;47.46;18751.06;4975908;28;20223;-54
2024/01/30 08:32:48;;;;;;;6.90;4.90;;;6.30;99.90;;;-141.84;47.43;18757.16;4969385;28;20295;-51
2024/01/30 08:35:16;;;;;;;9.03;5.20;;;6.40;99.90;;;-141.84;47.33;18791.69;4975868;28;20204;-53
2024/01/30 08:37:45;;;;;;;8.93;5.50;;;6.40;99.90;;;-141.84;47.29;18783.56;4976287;28;20276;-53
2024/01/30 08:40:13;;;;;;;7.83;5.37;;;6.40;99.90;;;-141.84;46.78;18805.91;4960850;28;20674;-53
2024/01/30 08:42:43;;;;;;;6.90;5.00;;;6.60;99.90;;;-141.84;46.19;18834.38;4979872;28;20334;-53
2024/01/30 08:45:12;;;;;;;5.77;4.83;;;6.70;99.90;;;-141.84;46.78;18803.88;4982868;28;20232;-54
2024/01/30 08:47:41;;;;;;;10.03;6.03;;;6.70;99.90;;;-141.84;46.43;18822.19;4984692;28;20207;-52
2024/01/30 08:50:10;;;;;;;9.67;5.60;;;6.80;99.90;;;-141.84;46.72;18816.06;4980567;28;20222;-54
2024/01/30 08:52:38;;;;;;;6.90;5.40;;;6.80;99.90;;;-141.84;46.38;18836.41;4976148;28;20228;-54
2024/01/30 08:55:07;;;;;;;8.43;5.63;;;6.80;99.90;;;-141.84;46.71;18836.41;4973434;28;20609;-55
2024/01/30 08:57:36;;;;;;;7.87;5.30;;;6.80;99.90;;;-141.84;46.79;18838.44;4977425;28;20225;-54
2024/01/30 09:00:09;;;;;;;7.53;5.40;;;6.90;99.90;;;-141.84;46.86;18814.03;4976856;28;20712;-56
2024/01/30 09:02:37;;;;;;;7.67;5.83;;;6.90;99.90;;;-141.84;47.12;18820.16;4983832;28;20192;-54
2024/01/30 09:05:06;;;;;;;7.40;5.40;;;6.90;99.90;;;-141.84;46.54;18832.34;4981095;28;20223;-56
2024/01/30 09:07:34;;;;;;;8.37;5.53;;;6.90;99.90;;;-141.84;46.41;18826.25;4970418;28;20231;-55
2024/01/30 09:10:03;;;;;;;7.00;5.37;;;7.00;99.90;;;-141.84;46.76;18830.31;4983612;28;20234;-49
2024/01/30 09:12:31;;;;;;;8.73;5.70;;;7.00;99.90;;;-141.84;46.33;18842.50;4979001;28;20228;-51
2024/01/30 09:14:59;;;;;;;8.00;5.40;;;7.10;99.90;;;-141.84;46.45;18850.63;4983149;28;20188;-55
2024/01/30 09:17:29;;;;;;;6.93;5.40;;;7.10;99.90;;;-141.84;46.69;18805.91;4983737;28;20210;-54
2024/01/30 09:19:58;;;;;;;9.83;5.97;;;7.10;99.90;;;-141.84;46.40;18901.41;4981666;28;20231;-54
2024/01/30 09:22:27;;;;;;;7.87;5.63;;;7.20;99.90;;;-141.84;46.39;18860.78;4980276;28;20252;-52
2024/01/30 09:24:55;;;;;;;8.90;5.60;;;7.30;99.90;;;-141.84;45.91;18870.94;4980299;28;20228;-53
2024/01/30 09:27:24;;;;;;;8.03;5.53;;;7.40;99.90;;;-141.84;46.07;18866.88;4988244;28;20231;-49
2024/01/30 09:29:52;;;;;;;6.50;5.33;;;7.50;99.90;;;-141.84;45.99;18872.97;4981025;28;20204;-52
2024/01/30 09:32:20;;;;;;;7.17;5.97;;;7.60;99.90;;;-141.84;45.94;18889.22;4983450;28;20340;-51
2024/01/30 09:34:50;;;;;;;7.37;5.73;;;7.70;99.90;;;-141.84;45.62;18889.22;4977808;28;20227;-54
2024/01/30 09:37:18;;;;;;;9.23;6.47;;;7.80;99.90;;;-141.84;45.59;18905.47;4977541;28;20252;-52
2024/01/30 09:39:46;;;;;;;10.20;6.13;;;8.00;99.90;;;-141.84;45.71;18907.50;4975362;28;20236;-55
2024/01/30 09:42:29;;;;;;;7.03;5.27;;;8.00;99.90;;;-141.84;45.23;18923.78;4972977;28;20327;-54
2024/01/30 09:44:57;;;;;;;7.77;5.60;;;8.10;99.90;;;-141.84;45.62;18899.38;4974337;28;20211;-55
2024/01/30 09:47:27;;;;;;;6.73;5.50;;;8.10;99.90;;;-141.84;45.29;18942.06;4980584;28;20275;-55
2024/01/30 09:49:58;;;;;;;9.33;5.50;;;8.30;99.90;;;-141.84;45.34;18911.56;4976930;28;20796;-52
2024/01/30 09:52:27;;;;;;;7.17;5.47;;;8.30;99.90;;;-141.84;45.50;18927.84;4975756;28;20220;-54
2024/01/30 09:54:56;;;;;;;6.77;5.33;;;8.30;99.90;;;-141.84;45.70;18917.66;4979616;28;20224;-52
2024/01/30 09:57:26;;;;;;;7.27;5.80;;;8.30;99.90;;;-141.84;45.41;18929.88;4980742;28;20228;-51
2024/01/30 09:59:54;;;;;;;7.30;5.63;;;8.40;99.90;;;-141.84;45.39;18950.19;4979613;28;20200;-52
2024/01/30 10:02:23;;;;;;;8.47;5.73;;;8.50;99.90;;;-141.84;45.88;18952.22;4979410;28;20199;-51
2024/01/30 10:04:53;;;;;;;7.83;6.30;;;8.40;99.90;;;-141.84;45.74;18929.88;4985969;28;20259;-49
2024/01/30 10:07:23;;;;;;;8.17;5.87;;;8.50;99.90;;;-141.84;45.64;18942.06;4962858;28;20230;-52
2024/01/30 10:09:51;;;;;;;7.87;5.33;;;8.60;99.90;;;-141.84;45.26;18956.28;4979042;28;20228;-55
2024/01/30 10:12:20;;;;;;;6.93;5.47;;;8.70;99.90;;;-141.84;45.32;18974.56;4976576;28;20233;-53
2024/01/30 10:14:48;;;;;;;6.60;5.90;;;8.80;99.90;;;-141.84;45.00;18986.75;4980089;28;20636;-53
2024/01/30 10:17:17;;;;;;;8.10;6.23;;;8.90;99.90;;;-141.84;45.08;18974.56;4980277;28;20207;-51
2024/01/30 10:19:59;;;;;;;7.00;5.07;;;9.00;99.90;;;-141.84;45.29;18996.91;4979584;28;20231;-52